sensor_id;sensor_type;location;lat;lon;timestamp;temperature;humidity
19755;DHT22;10036;47.812;9.274;2024-02-23T00:00:12;6.80;99.90
19755;DHT22;10036;47.812;9.274;2024-02-23T00:02:39;6.80;99.90
19755;DHT22;10036;47.812;9.274;2024-02-23T00:05:06;6.70;99.90
19755;DHT22;10036;47.812;9.274;2024-02-23T00:07:33;6.70;99.90
19755;DHT22;10036;47.812;9.274;2024-02-23T00:10:00;6.70;99.90
19755;DHT22;10036;47.812;9.274;2024-02-23T00:12:27;6.80;99.90
19755;DHT22;10036;47.812;9.274;2024-02-23T00:14:55;6.70;99.90
19755;DHT22;10036;47.812;9.274;2024-02-23T00:17:22;6.60;99.90
19755;DHT22;10036;47.812;9.274;2024-02-23T00:19:49;6.50;99.90
19755;DHT22;10036;47.812;9.274;2024-02-23T00:22:18;6.40;99.90
19755;DHT22;10036;47.812;9.274;2024-02-23T00:24:45;6.40;99.90
19755;DHT22;10036;47.812;9.274;2024-02-23T00:27:12;6.40;99.90
19755;DHT22;10036;47.812;9.274;2024-02-23T00:29:38;6.40;99.90
19755;DHT22;10036;47.812;9.274;2024-02-23T00:32:07;6.30;99.90
19755;DHT22;10036;47.812;9.274;2024-02-23T00:34:34;6.20;99.90
19755;DHT22;10036;47.812;9.274;2024-02-23T00:37:02;6.40;99.90
19755;DHT22;10036;47.812;9.274;2024-02-23T00:39:29;6.30;99.90
19755;DHT22;10036;47.812;9.274;2024-02-23T00:41:57;6.30;99.90
19755;DHT22;10036;47.812;9.274;2024-02-23T00:44:24;6.30;99.90
19755;DHT22;10036;47.812;9.274;2024-02-23T00:46:51;6.40;99.90
19755;DHT22;10036;47.812;9.274;2024-02-23T00:49:19;6.30;99.90
19755;DHT22;10036;47.812;9.274;2024-02-23T00:51:46;6.40;99.90
19755;DHT22;10036;47.812;9.274;2024-02-23T00:54:13;6.40;99.90
19755;DHT22;10036;47.812;9.274;2024-02-23T00:56:40;6.40;99.90
19755;DHT22;10036;47.812;9.274;2024-02-23T00:59:07;6.40;99.90
19755;DHT22;10036;47.812;9.274;2024-02-23T01:01:34;6.50;99.90
19755;DHT22;10036;47.812;9.274;2024-02-23T01:04:00;6.50;99.90
19755;DHT22;10036;47.812;9.274;2024-02-23T01:06:29;6.40;99.90
19755;DHT22;10036;47.812;9.274;2024-02-23T01:08:56;6.40;99.90
19755;DHT22;10036;47.812;9.274;2024-02-23T01:11:22;6.50;99.90
19755;DHT22;10036;47.812;9.274;2024-02-23T01:13:49;6.60;99.90
19755;DHT22;10036;47.812;9.274;2024-02-23T01:16:16;6.50;99.90
19755;DHT22;10036;47.812;9.274;2024-02-23T01:18:43;6.50;99.90
19755;DHT22;10036;47.812;9.274;2024-02-23T01:21:10;6.50;99.90
19755;DHT22;10036;47.812;9.274;2024-02-23T01:23:38;6.50;99.90
19755;DHT22;10036;47.812;9.274;2024-02-23T01:26:05;6.50;99.90
19755;DHT22;10036;47.812;9.274;2024-02-23T01:28:32;6.50;99.90
19755;DHT22;10036;47.812;9.274;2024-02-23T01:30:59;6.50;99.90
19755;DHT22;10036;47.812;9.274;2024-02-23T01:33:26;6.40;99.90
19755;DHT22;10036;47.812;9.274;2024-02-23T01:35:53;6.40;99.90
19755;DHT22;10036;47.812;9.274;2024-02-23T01:38:20;6.40;99.90
19755;DHT22;10036;47.812;9.274;2024-02-23T01:40:49;6.30;99.90
19755;DHT22;10036;47.812;9.274;2024-02-23T01:43:15;6.30;99.90
19755;DHT22;10036;47.812;9.274;2024-02-23T01:45:43;6.20;99.90
19755;DHT22;10036;47.812;9.274;2024-02-23T01:48:09;6.20;99.90
19755;DHT22;10036;47.812;9.274;2024-02-23T01:50:37;6.20;99.90
19755;DHT22;10036;47.812;9.274;2024-02-23T01:53:05;6.10;99.90
19755;DHT22;10036;47.812;9.274;2024-02-23T01:55:32;6.10;99.90
19755;DHT22;10036;47.812;9.274;2024-02-23T01:58:01;5.90;99.90
19755;DHT22;10036;47.812;9.274;2024-02-23T02:00:28;6.00;99.90
19755;DHT22;10036;47.812;9.274;2024-02-23T02:02:56;5.90;99.90
19755;DHT22;10036;47.812;9.274;2024-02-23T02:05:24;5.80;99.90
19755;DHT22;10036;47.812;9.274;2024-02-23T02:07:53;5.80;99.90
19755;DHT22;10036;47.812;9.274;2024-02-23T02:10:24;5.80;99.90
19755;DHT22;10036;47.812;9.274;2024-02-23T02:12:51;5.70;99.90
19755;DHT22;10036;47.812;9.274;2024-02-23T02:15:20;5.70;99.90
19755;DHT22;10036;47.812;9.274;2024-02-23T02:17:47;5.60;99.90
19755;DHT22;10036;47.812;9.274;2024-02-23T02:20:14;5.60;99.90
19755;DHT22;10036;47.812;9.274;2024-02-23T02:22:42;5.50;99.90
19755;DHT22;10036;47.812;9.274;2024-02-23T02:25:09;5.60;99.90
19755;DHT22;10036;47.812;9.274;2024-02-23T02:27:36;5.60;99.90
19755;DHT22;10036;47.812;9.274;2024-02-23T02:30:04;5.40;99.90
19755;DHT22;10036;47.812;9.274;2024-02-23T02:32:32;5.50;99.90
19755;DHT22;10036;47.812;9.274;2024-02-23T02:34:59;5.50;99.90
19755;DHT22;10036;47.812;9.274;2024-02-23T02:37:26;5.40;99.90
19755;DHT22;10036;47.812;9.274;2024-02-23T02:39:52;5.30;99.90
19755;DHT22;10036;47.812;9.274;2024-02-23T02:42:19;5.40;99.90
19755;DHT22;10036;47.812;9.274;2024-02-23T02:44:46;5.30;99.90
19755;DHT22;10036;47.812;9.274;2024-02-23T02:47:13;5.20;99.90
19755;DHT22;10036;47.812;9.274;2024-02-23T02:49:41;5.30;99.90
19755;DHT22;10036;47.812;9.274;2024-02-23T02:52:08;5.30;99.90
19755;DHT22;10036;47.812;9.274;2024-02-23T02:54:35;5.20;99.90
19755;DHT22;10036;47.812;9.274;2024-02-23T02:57:02;5.20;99.90
19755;DHT22;10036;47.812;9.274;2024-02-23T02:59:29;5.20;99.90
19755;DHT22;10036;47.812;9.274;2024-02-23T03:01:57;5.20;99.90
19755;DHT22;10036;47.812;9.274;2024-02-23T03:04:24;5.10;99.90
19755;DHT22;10036;47.812;9.274;2024-02-23T03:06:52;5.00;99.90
19755;DHT22;10036;47.812;9.274;2024-02-23T03:09:19;5.10;99.90
19755;DHT22;10036;47.812;9.274;2024-02-23T03:11:46;5.10;99.90
19755;DHT22;10036;47.812;9.274;2024-02-23T03:14:13;5.10;99.90
19755;DHT22;10036;47.812;9.274;2024-02-23T03:16:40;5.00;99.90
19755;DHT22;10036;47.812;9.274;2024-02-23T03:19:07;5.00;99.90
19755;DHT22;10036;47.812;9.274;2024-02-23T03:21:34;5.00;99.90
19755;DHT22;10036;47.812;9.274;2024-02-23T03:24:03;5.00;99.90
19755;DHT22;10036;47.812;9.274;2024-02-23T03:26:29;4.90;99.90
19755;DHT22;10036;47.812;9.274;2024-02-23T03:28:56;4.80;99.90
19755;DHT22;10036;47.812;9.274;2024-02-23T03:31:23;4.90;99.90
19755;DHT22;10036;47.812;9.274;2024-02-23T03:33:50;4.80;99.90
19755;DHT22;10036;47.812;9.274;2024-02-23T03:36:17;4.90;99.90
19755;DHT22;10036;47.812;9.274;2024-02-23T03:38:44;4.90;99.90
19755;DHT22;10036;47.812;9.274;2024-02-23T03:41:12;4.90;99.90
19755;DHT22;10036;47.812;9.274;2024-02-23T03:43:39;4.90;99.90
19755;DHT22;10036;47.812;9.274;2024-02-23T03:46:06;4.90;99.90
19755;DHT22;10036;47.812;9.274;2024-02-23T03:48:33;4.80;99.90
19755;DHT22;10036;47.812;9.274;2024-02-23T03:51:03;4.90;99.90
19755;DHT22;10036;47.812;9.274;2024-02-23T03:53:30;4.90;99.90
19755;DHT22;10036;47.812;9.274;2024-02-23T03:55:57;4.90;99.90
19755;DHT22;10036;47.812;9.274;2024-02-23T03:58:25;4.80;99.90
19755;DHT22;10036;47.812;9.274;2024-02-23T04:00:52;4.90;99.90
19755;DHT22;10036;47.812;9.274;2024-02-23T04:03:19;4.90;99.90
19755;DHT22;10036;47.812;9.274;2024-02-23T04:05:46;4.90;99.90
19755;DHT22;10036;47.812;9.274;2024-02-23T04:08:13;4.90;99.90
19755;DHT22;10036;47.812;9.274;2024-02-23T04:10:39;4.80;99.90
19755;DHT22;10036;47.812;9.274;2024-02-23T04:13:06;4.90;99.90
19755;DHT22;10036;47.812;9.274;2024-02-23T04:15:35;4.80;99.90
19755;DHT22;10036;47.812;9.274;2024-02-23T04:18:02;5.00;99.90
19755;DHT22;10036;47.812;9.274;2024-02-23T04:20:29;4.80;99.90
19755;DHT22;10036;47.812;9.274;2024-02-23T04:22:56;4.80;99.90
19755;DHT22;10036;47.812;9.274;2024-02-23T04:25:23;4.80;99.90
19755;DHT22;10036;47.812;9.274;2024-02-23T04:27:49;4.90;99.90
19755;DHT22;10036;47.812;9.274;2024-02-23T04:30:16;4.80;99.90
19755;DHT22;10036;47.812;9.274;2024-02-23T04:32:45;4.90;99.90
19755;DHT22;10036;47.812;9.274;2024-02-23T04:35:12;4.80;99.90
19755;DHT22;10036;47.812;9.274;2024-02-23T04:37:39;4.80;99.90
19755;DHT22;10036;47.812;9.274;2024-02-23T04:40:07;4.80;99.90
19755;DHT22;10036;47.812;9.274;2024-02-23T04:42:34;4.80;99.90
19755;DHT22;10036;47.812;9.274;2024-02-23T04:45:01;4.80;99.90
19755;DHT22;10036;47.812;9.274;2024-02-23T04:47:28;4.80;99.90
19755;DHT22;10036;47.812;9.274;2024-02-23T04:49:56;4.80;99.90
19755;DHT22;10036;47.812;9.274;2024-02-23T04:52:23;4.90;99.90
19755;DHT22;10036;47.812;9.274;2024-02-23T04:54:50;4.90;99.90
19755;DHT22;10036;47.812;9.274;2024-02-23T04:57:17;4.80;99.90
19755;DHT22;10036;47.812;9.274;2024-02-23T04:59:44;4.90;99.90
19755;DHT22;10036;47.812;9.274;2024-02-23T05:02:10;4.80;99.90
19755;DHT22;10036;47.812;9.274;2024-02-23T05:04:37;4.70;99.90
19755;DHT22;10036;47.812;9.274;2024-02-23T05:07:05;4.70;99.90
19755;DHT22;10036;47.812;9.274;2024-02-23T05:09:32;4.80;99.90
19755;DHT22;10036;47.812;9.274;2024-02-23T05:12:00;4.80;99.90
19755;DHT22;10036;47.812;9.274;2024-02-23T05:14:27;4.70;99.90
19755;DHT22;10036;47.812;9.274;2024-02-23T05:16:54;4.80;99.90
19755;DHT22;10036;47.812;9.274;2024-02-23T05:19:21;4.90;99.90
19755;DHT22;10036;47.812;9.274;2024-02-23T05:21:48;4.80;99.90
19755;DHT22;10036;47.812;9.274;2024-02-23T05:24:16;4.80;99.90
19755;DHT22;10036;47.812;9.274;2024-02-23T05:26:43;4.90;99.90
19755;DHT22;10036;47.812;9.274;2024-02-23T05:29:10;4.70;99.90
19755;DHT22;10036;47.812;9.274;2024-02-23T05:31:45;4.70;99.90
19755;DHT22;10036;47.812;9.274;2024-02-23T05:34:13;4.70;99.90
19755;DHT22;10036;47.812;9.274;2024-02-23T05:36:40;4.80;99.90
19755;DHT22;10036;47.812;9.274;2024-02-23T05:39:07;4.70;99.90
19755;DHT22;10036;47.812;9.274;2024-02-23T05:41:36;4.70;99.90
19755;DHT22;10036;47.812;9.274;2024-02-23T05:44:03;4.80;99.90
19755;DHT22;10036;47.812;9.274;2024-02-23T05:46:32;4.80;99.90
19755;DHT22;10036;47.812;9.274;2024-02-23T05:48:59;4.80;99.90
19755;DHT22;10036;47.812;9.274;2024-02-23T05:51:27;4.80;99.90
19755;DHT22;10036;47.812;9.274;2024-02-23T05:53:54;4.70;99.90
19755;DHT22;10036;47.812;9.274;2024-02-23T05:56:21;4.70;99.90
19755;DHT22;10036;47.812;9.274;2024-02-23T05:58:50;4.70;99.90
19755;DHT22;10036;47.812;9.274;2024-02-23T06:01:17;4.70;99.90
19755;DHT22;10036;47.812;9.274;2024-02-23T06:03:45;4.70;99.90
19755;DHT22;10036;47.812;9.274;2024-02-23T06:06:12;4.80;99.90
19755;DHT22;10036;47.812;9.274;2024-02-23T06:08:39;4.80;99.90
19755;DHT22;10036;47.812;9.274;2024-02-23T06:11:06;4.80;99.90
19755;DHT22;10036;47.812;9.274;2024-02-23T06:13:35;4.80;99.90
19755;DHT22;10036;47.812;9.274;2024-02-23T06:16:04;4.70;99.90
19755;DHT22;10036;47.812;9.274;2024-02-23T06:18:31;4.80;99.90
19755;DHT22;10036;47.812;9.274;2024-02-23T06:20:58;4.80;99.90
19755;DHT22;10036;47.812;9.274;2024-02-23T06:23:25;4.70;99.90
19755;DHT22;10036;47.812;9.274;2024-02-23T06:25:52;4.70;99.90
19755;DHT22;10036;47.812;9.274;2024-02-23T06:28:18;4.70;99.90
19755;DHT22;10036;47.812;9.274;2024-02-23T06:30:45;4.60;99.90
19755;DHT22;10036;47.812;9.274;2024-02-23T06:33:14;4.70;99.90
19755;DHT22;10036;47.812;9.274;2024-02-23T06:35:41;4.70;99.90
19755;DHT22;10036;47.812;9.274;2024-02-23T06:38:08;4.70;99.90
19755;DHT22;10036;47.812;9.274;2024-02-23T06:40:36;4.80;99.90
19755;DHT22;10036;47.812;9.274;2024-02-23T06:43:03;4.60;99.90
19755;DHT22;10036;47.812;9.274;2024-02-23T06:45:30;4.60;99.90
19755;DHT22;10036;47.812;9.274;2024-02-23T06:47:58;4.60;99.90
19755;DHT22;10036;47.812;9.274;2024-02-23T06:50:26;4.60;99.90
19755;DHT22;10036;47.812;9.274;2024-02-23T06:52:53;4.60;99.90
19755;DHT22;10036;47.812;9.274;2024-02-23T06:55:20;4.60;99.90
19755;DHT22;10036;47.812;9.274;2024-02-23T06:57:48;4.70;99.90
19755;DHT22;10036;47.812;9.274;2024-02-23T07:00:15;4.60;99.90
19755;DHT22;10036;47.812;9.274;2024-02-23T07:02:42;4.60;99.90
19755;DHT22;10036;47.812;9.274;2024-02-23T07:05:09;4.70;99.90
19755;DHT22;10036;47.812;9.274;2024-02-23T07:07:37;4.60;99.90
19755;DHT22;10036;47.812;9.274;2024-02-23T07:10:06;4.60;99.90
19755;DHT22;10036;47.812;9.274;2024-02-23T07:12:33;4.70;99.90
19755;DHT22;10036;47.812;9.274;2024-02-23T07:15:00;4.60;99.90
19755;DHT22;10036;47.812;9.274;2024-02-23T07:17:27;4.70;99.90
19755;DHT22;10036;47.812;9.274;2024-02-23T07:19:54;4.70;99.90
19755;DHT22;10036;47.812;9.274;2024-02-23T07:22:28;4.70;99.90
19755;DHT22;10036;47.812;9.274;2024-02-23T07:24:57;4.70;99.90
19755;DHT22;10036;47.812;9.274;2024-02-23T07:27:23;4.70;99.90
19755;DHT22;10036;47.812;9.274;2024-02-23T07:29:50;4.70;99.90
19755;DHT22;10036;47.812;9.274;2024-02-23T07:32:17;4.60;99.90
19755;DHT22;10036;47.812;9.274;2024-02-23T07:34:44;4.60;99.90
19755;DHT22;10036;47.812;9.274;2024-02-23T07:37:11;4.60;99.90
19755;DHT22;10036;47.812;9.274;2024-02-23T07:39:38;4.70;99.90
19755;DHT22;10036;47.812;9.274;2024-02-23T07:42:06;4.60;99.90
19755;DHT22;10036;47.812;9.274;2024-02-23T07:44:35;4.70;99.90
19755;DHT22;10036;47.812;9.274;2024-02-23T07:47:03;4.70;99.90
19755;DHT22;10036;47.812;9.274;2024-02-23T07:49:30;4.60;99.90
19755;DHT22;10036;47.812;9.274;2024-02-23T07:51:57;4.60;99.90
19755;DHT22;10036;47.812;9.274;2024-02-23T07:54:25;4.60;99.90
19755;DHT22;10036;47.812;9.274;2024-02-23T07:56:52;4.60;99.90
19755;DHT22;10036;47.812;9.274;2024-02-23T07:59:20;4.70;99.90
19755;DHT22;10036;47.812;9.274;2024-02-23T08:01:47;4.70;99.90
19755;DHT22;10036;47.812;9.274;2024-02-23T08:04:14;4.70;99.90
19755;DHT22;10036;47.812;9.274;2024-02-23T08:06:41;4.60;99.90
19755;DHT22;10036;47.812;9.274;2024-02-23T08:09:09;4.80;99.90
19755;DHT22;10036;47.812;9.274;2024-02-23T08:11:35;4.60;99.90
19755;DHT22;10036;47.812;9.274;2024-02-23T08:14:02;4.60;99.90
19755;DHT22;10036;47.812;9.274;2024-02-23T08:16:31;4.60;99.90
19755;DHT22;10036;47.812;9.274;2024-02-23T08:18:58;4.70;99.90
19755;DHT22;10036;47.812;9.274;2024-02-23T08:21:25;4.80;99.90
19755;DHT22;10036;47.812;9.274;2024-02-23T08:23:52;4.70;99.90
19755;DHT22;10036;47.812;9.274;2024-02-23T08:26:19;4.80;99.90
19755;DHT22;10036;47.812;9.274;2024-02-23T08:28:46;4.60;99.90
19755;DHT22;10036;47.812;9.274;2024-02-23T08:31:13;4.80;99.90
19755;DHT22;10036;47.812;9.274;2024-02-23T08:33:41;4.70;99.90
19755;DHT22;10036;47.812;9.274;2024-02-23T08:36:08;4.80;99.90
19755;DHT22;10036;47.812;9.274;2024-02-23T08:38:35;4.70;99.90
19755;DHT22;10036;47.812;9.274;2024-02-23T08:41:02;4.80;99.90
19755;DHT22;10036;47.812;9.274;2024-02-23T08:43:29;4.90;99.90
19755;DHT22;10036;47.812;9.274;2024-02-23T08:45:56;5.00;99.90
19755;DHT22;10036;47.812;9.274;2024-02-23T08:48:23;5.00;99.90
19755;DHT22;10036;47.812;9.274;2024-02-23T08:50:51;4.90;99.90
19755;DHT22;10036;47.812;9.274;2024-02-23T08:53:18;5.00;99.90
19755;DHT22;10036;47.812;9.274;2024-02-23T08:55:45;5.00;99.90
19755;DHT22;10036;47.812;9.274;2024-02-23T08:58:12;5.10;99.90
19755;DHT22;10036;47.812;9.274;2024-02-23T09:00:39;5.20;99.90
19755;DHT22;10036;47.812;9.274;2024-02-23T09:03:06;5.20;99.90
19755;DHT22;10036;47.812;9.274;2024-02-23T09:05:33;5.20;99.90
19755;DHT22;10036;47.812;9.274;2024-02-23T09:08:01;5.20;99.90
19755;DHT22;10036;47.812;9.274;2024-02-23T09:10:28;5.30;99.90
19755;DHT22;10036;47.812;9.274;2024-02-23T09:12:55;5.30;99.90
19755;DHT22;10036;47.812;9.274;2024-02-23T09:15:21;5.40;99.90
19755;DHT22;10036;47.812;9.274;2024-02-23T09:17:48;5.40;99.90
19755;DHT22;10036;47.812;9.274;2024-02-23T09:20:16;5.30;99.90
19755;DHT22;10036;47.812;9.274;2024-02-23T09:22:43;5.40;99.90
19755;DHT22;10036;47.812;9.274;2024-02-23T09:25:11;5.40;99.90
19755;DHT22;10036;47.812;9.274;2024-02-23T09:27:38;5.40;99.90
19755;DHT22;10036;47.812;9.274;2024-02-23T09:30:10;5.30;99.90
19755;DHT22;10036;47.812;9.274;2024-02-23T09:32:37;5.50;99.90
19755;DHT22;10036;47.812;9.274;2024-02-23T09:35:04;5.50;99.90
19755;DHT22;10036;47.812;9.274;2024-02-23T09:37:32;5.40;99.90
19755;DHT22;10036;47.812;9.274;2024-02-23T09:39:59;5.40;99.90
19755;DHT22;10036;47.812;9.274;2024-02-23T09:42:28;5.40;99.90
19755;DHT22;10036;47.812;9.274;2024-02-23T09:44:58;5.50;99.90
19755;DHT22;10036;47.812;9.274;2024-02-23T09:47:27;5.50;99.90
19755;DHT22;10036;47.812;9.274;2024-02-23T09:49:54;5.70;99.90
19755;DHT22;10036;47.812;9.274;2024-02-23T09:52:22;5.80;99.90
19755;DHT22;10036;47.812;9.274;2024-02-23T09:54:49;5.80;99.90
19755;DHT22;10036;47.812;9.274;2024-02-23T09:57:16;5.90;99.90
19755;DHT22;10036;47.812;9.274;2024-02-23T09:59:46;5.80;99.90
19755;DHT22;10036;47.812;9.274;2024-02-23T10:02:16;5.90;99.90
19755;DHT22;10036;47.812;9.274;2024-02-23T10:04:43;6.00;99.90
19755;DHT22;10036;47.812;9.274;2024-02-23T10:07:12;6.10;99.90
19755;DHT22;10036;47.812;9.274;2024-02-23T10:09:40;6.10;99.90
19755;DHT22;10036;47.812;9.274;2024-02-23T10:12:08;6.00;99.90
19755;DHT22;10036;47.812;9.274;2024-02-23T10:14:35;6.00;99.90
19755;DHT22;10036;47.812;9.274;2024-02-23T10:17:03;5.90;99.90
19755;DHT22;10036;47.812;9.274;2024-02-23T10:19:34;6.00;99.90
19755;DHT22;10036;47.812;9.274;2024-02-23T10:22:01;6.10;99.90
19755;DHT22;10036;47.812;9.274;2024-02-23T10:24:27;6.20;99.90
19755;DHT22;10036;47.812;9.274;2024-02-23T10:26:54;6.30;99.90
19755;DHT22;10036;47.812;9.274;2024-02-23T10:29:21;6.20;99.90
19755;DHT22;10036;47.812;9.274;2024-02-23T10:31:48;6.30;99.90
19755;DHT22;10036;47.812;9.274;2024-02-23T10:34:20;6.20;99.90
19755;DHT22;10036;47.812;9.274;2024-02-23T10:36:47;6.20;99.90
19755;DHT22;10036;47.812;9.274;2024-02-23T10:39:17;6.20;99.90
19755;DHT22;10036;47.812;9.274;2024-02-23T10:41:50;6.30;99.90
19755;DHT22;10036;47.812;9.274;2024-02-23T10:44:20;6.20;99.90
19755;DHT22;10036;47.812;9.274;2024-02-23T10:46:49;6.20;99.90
19755;DHT22;10036;47.812;9.274;2024-02-23T10:49:19;6.10;99.90
19755;DHT22;10036;47.812;9.274;2024-02-23T10:51:48;6.10;99.90
19755;DHT22;10036;47.812;9.274;2024-02-23T10:54:16;6.30;99.90
19755;DHT22;10036;47.812;9.274;2024-02-23T10:56:46;6.40;99.90
19755;DHT22;10036;47.812;9.274;2024-02-23T10:59:14;6.40;99.90
19755;DHT22;10036;47.812;9.274;2024-02-23T11:01:44;6.40;99.90
19755;DHT22;10036;47.812;9.274;2024-02-23T11:04:11;6.50;99.90
19755;DHT22;10036;47.812;9.274;2024-02-23T11:06:40;6.50;99.90
19755;DHT22;10036;47.812;9.274;2024-02-23T11:09:08;6.40;99.90
19755;DHT22;10036;47.812;9.274;2024-02-23T11:11:39;6.40;99.90
19755;DHT22;10036;47.812;9.274;2024-02-23T11:14:07;6.50;99.90
19755;DHT22;10036;47.812;9.274;2024-02-23T11:16:38;6.50;99.90
19755;DHT22;10036;47.812;9.274;2024-02-23T11:19:08;6.40;99.90
19755;DHT22;10036;47.812;9.274;2024-02-23T11:21:37;6.40;99.90
19755;DHT22;10036;47.812;9.274;2024-02-23T11:24:06;6.50;99.90
19755;DHT22;10036;47.812;9.274;2024-02-23T11:26:37;6.60;99.90
19755;DHT22;10036;47.812;9.274;2024-02-23T11:29:10;6.50;99.90
19755;DHT22;10036;47.812;9.274;2024-02-23T11:31:44;6.40;99.90
19755;DHT22;10036;47.812;9.274;2024-02-23T11:34:12;6.40;99.90
19755;DHT22;10036;47.812;9.274;2024-02-23T11:36:39;6.50;99.90
19755;DHT22;10036;47.812;9.274;2024-02-23T11:39:10;6.50;99.90
19755;DHT22;10036;47.812;9.274;2024-02-23T11:41:38;6.40;99.90
19755;DHT22;10036;47.812;9.274;2024-02-23T11:44:05;6.60;99.90
19755;DHT22;10036;47.812;9.274;2024-02-23T11:46:33;6.70;99.90
19755;DHT22;10036;47.812;9.274;2024-02-23T11:49:00;6.70;99.90
19755;DHT22;10036;47.812;9.274;2024-02-23T11:51:27;6.70;99.90
19755;DHT22;10036;47.812;9.274;2024-02-23T11:53:56;6.80;99.90
19755;DHT22;10036;47.812;9.274;2024-02-23T11:56:27;7.00;99.90
19755;DHT22;10036;47.812;9.274;2024-02-23T11:58:55;7.00;99.90
19755;DHT22;10036;47.812;9.274;2024-02-23T12:01:22;7.20;99.90
19755;DHT22;10036;47.812;9.274;2024-02-23T12:03:48;7.30;99.90
19755;DHT22;10036;47.812;9.274;2024-02-23T12:06:17;7.20;99.90
19755;DHT22;10036;47.812;9.274;2024-02-23T12:08:44;7.20;99.90
19755;DHT22;10036;47.812;9.274;2024-02-23T12:11:12;7.30;99.90
19755;DHT22;10036;47.812;9.274;2024-02-23T12:13:40;7.00;99.90
19755;DHT22;10036;47.812;9.274;2024-02-23T12:16:08;7.20;99.90
19755;DHT22;10036;47.812;9.274;2024-02-23T12:18:36;7.20;99.90
19755;DHT22;10036;47.812;9.274;2024-02-23T12:21:05;7.30;99.90
19755;DHT22;10036;47.812;9.274;2024-02-23T12:23:42;7.40;99.90
19755;DHT22;10036;47.812;9.274;2024-02-23T12:26:12;7.40;99.90
19755;DHT22;10036;47.812;9.274;2024-02-23T12:28:41;7.30;99.90
19755;DHT22;10036;47.812;9.274;2024-02-23T12:31:08;7.30;99.90
19755;DHT22;10036;47.812;9.274;2024-02-23T12:33:37;7.20;99.90
19755;DHT22;10036;47.812;9.274;2024-02-23T12:36:05;7.20;99.90
19755;DHT22;10036;47.812;9.274;2024-02-23T12:38:33;7.30;99.90
19755;DHT22;10036;47.812;9.274;2024-02-23T12:41:00;7.40;99.90
19755;DHT22;10036;47.812;9.274;2024-02-23T12:43:28;7.30;99.90
19755;DHT22;10036;47.812;9.274;2024-02-23T12:45:57;7.30;99.90
19755;DHT22;10036;47.812;9.274;2024-02-23T12:48:24;7.20;99.90
19755;DHT22;10036;47.812;9.274;2024-02-23T12:50:52;7.30;99.90
19755;DHT22;10036;47.812;9.274;2024-02-23T12:53:31;7.20;99.90
19755;DHT22;10036;47.812;9.274;2024-02-23T12:56:00;7.40;99.90
19755;DHT22;10036;47.812;9.274;2024-02-23T12:58:27;7.30;99.90
19755;DHT22;10036;47.812;9.274;2024-02-23T13:00:55;7.50;99.90
19755;DHT22;10036;47.812;9.274;2024-02-23T13:03:23;7.50;99.90
19755;DHT22;10036;47.812;9.274;2024-02-23T13:05:50;7.50;99.90
19755;DHT22;10036;47.812;9.274;2024-02-23T13:08:17;7.40;99.90
19755;DHT22;10036;47.812;9.274;2024-02-23T13:10:44;7.40;99.90
19755;DHT22;10036;47.812;9.274;2024-02-23T13:13:11;7.50;99.90
19755;DHT22;10036;47.812;9.274;2024-02-23T13:15:40;7.60;99.90
19755;DHT22;10036;47.812;9.274;2024-02-23T13:18:09;7.50;99.90
19755;DHT22;10036;47.812;9.274;2024-02-23T13:20:36;7.70;99.90
19755;DHT22;10036;47.812;9.274;2024-02-23T13:23:03;7.60;99.90
19755;DHT22;10036;47.812;9.274;2024-02-23T13:25:32;7.60;99.90
19755;DHT22;10036;47.812;9.274;2024-02-23T13:27:59;7.50;99.90
19755;DHT22;10036;47.812;9.274;2024-02-23T13:30:26;7.50;99.90
19755;DHT22;10036;47.812;9.274;2024-02-23T13:32:52;7.50;99.90
19755;DHT22;10036;47.812;9.274;2024-02-23T13:35:21;7.50;99.90
19755;DHT22;10036;47.812;9.274;2024-02-23T13:37:48;7.50;99.90
19755;DHT22;10036;47.812;9.274;2024-02-23T13:40:15;7.60;99.90
19755;DHT22;10036;47.812;9.274;2024-02-23T13:42:42;7.50;99.90
19755;DHT22;10036;47.812;9.274;2024-02-23T13:45:11;7.60;99.90
19755;DHT22;10036;47.812;9.274;2024-02-23T13:47:40;7.50;99.90
19755;DHT22;10036;47.812;9.274;2024-02-23T13:50:08;7.50;99.90
19755;DHT22;10036;47.812;9.274;2024-02-23T13:52:37;7.50;99.90
19755;DHT22;10036;47.812;9.274;2024-02-23T13:55:04;7.60;99.90
19755;DHT22;10036;47.812;9.274;2024-02-23T13:57:31;7.60;99.90
19755;DHT22;10036;47.812;9.274;2024-02-23T14:00:00;7.70;99.90
19755;DHT22;10036;47.812;9.274;2024-02-23T14:02:27;7.80;99.90
19755;DHT22;10036;47.812;9.274;2024-02-23T14:04:59;7.70;99.90
19755;DHT22;10036;47.812;9.274;2024-02-23T14:07:28;7.90;99.90
19755;DHT22;10036;47.812;9.274;2024-02-23T14:09:56;7.90;99.90
19755;DHT22;10036;47.812;9.274;2024-02-23T14:12:23;7.90;99.90
19755;DHT22;10036;47.812;9.274;2024-02-23T14:14:50;7.90;99.90
19755;DHT22;10036;47.812;9.274;2024-02-23T14:17:16;8.10;99.90
19755;DHT22;10036;47.812;9.274;2024-02-23T14:19:43;8.20;99.90
19755;DHT22;10036;47.812;9.274;2024-02-23T14:22:10;8.20;99.90
19755;DHT22;10036;47.812;9.274;2024-02-23T14:24:37;8.40;99.90
19755;DHT22;10036;47.812;9.274;2024-02-23T14:27:06;8.20;99.90
19755;DHT22;10036;47.812;9.274;2024-02-23T14:29:33;8.20;99.90
19755;DHT22;10036;47.812;9.274;2024-02-23T14:32:00;8.10;99.90
19755;DHT22;10036;47.812;9.274;2024-02-23T14:34:27;8.20;99.90
19755;DHT22;10036;47.812;9.274;2024-02-23T14:36:54;8.10;99.90
19755;DHT22;10036;47.812;9.274;2024-02-23T14:39:22;7.80;99.90
19755;DHT22;10036;47.812;9.274;2024-02-23T14:41:49;7.90;99.90
19755;DHT22;10036;47.812;9.274;2024-02-23T14:44:17;8.10;99.90
19755;DHT22;10036;47.812;9.274;2024-02-23T14:46:44;8.20;99.90
19755;DHT22;10036;47.812;9.274;2024-02-23T14:49:11;7.90;99.90
19755;DHT22;10036;47.812;9.274;2024-02-23T14:51:38;7.90;99.90
19755;DHT22;10036;47.812;9.274;2024-02-23T14:54:08;7.80;99.90
19755;DHT22;10036;47.812;9.274;2024-02-23T14:56:35;7.90;99.90
19755;DHT22;10036;47.812;9.274;2024-02-23T14:59:02;8.00;99.90
19755;DHT22;10036;47.812;9.274;2024-02-23T15:01:30;7.90;99.90
19755;DHT22;10036;47.812;9.274;2024-02-23T15:03:57;7.90;99.90
19755;DHT22;10036;47.812;9.274;2024-02-23T15:06:24;7.80;99.90
19755;DHT22;10036;47.812;9.274;2024-02-23T15:08:53;7.80;99.90
19755;DHT22;10036;47.812;9.274;2024-02-23T15:11:20;7.80;99.90
19755;DHT22;10036;47.812;9.274;2024-02-23T15:13:47;7.60;99.90
19755;DHT22;10036;47.812;9.274;2024-02-23T15:16:14;7.50;99.90
19755;DHT22;10036;47.812;9.274;2024-02-23T15:18:42;7.50;99.90
19755;DHT22;10036;47.812;9.274;2024-02-23T15:21:09;7.50;99.90
19755;DHT22;10036;47.812;9.274;2024-02-23T15:23:37;7.70;99.90
19755;DHT22;10036;47.812;9.274;2024-02-23T15:26:05;7.70;99.90
19755;DHT22;10036;47.812;9.274;2024-02-23T15:28:32;7.70;99.90
19755;DHT22;10036;47.812;9.274;2024-02-23T15:31:00;7.70;99.90
19755;DHT22;10036;47.812;9.274;2024-02-23T15:33:28;7.90;99.90
19755;DHT22;10036;47.812;9.274;2024-02-23T15:35:57;7.90;99.90
19755;DHT22;10036;47.812;9.274;2024-02-23T15:38:25;7.80;99.90
19755;DHT22;10036;47.812;9.274;2024-02-23T15:40:52;7.70;99.90
19755;DHT22;10036;47.812;9.274;2024-02-23T15:43:19;7.70;99.90
19755;DHT22;10036;47.812;9.274;2024-02-23T15:45:46;7.70;99.90